This is the latest recevied weather packets stored in our database for station/object OM0AGP-15. If no packets are shown the sender has not sent any weather packets the latest 10 day(s).
| Time | Temp. | Humidity | Pressure | Rain* | Wind** | Luminosity | Snow |
|---|---|---|---|---|---|---|---|
| 1787641103 | 16.11° C | 57% | 1019.2 hPa | - | - | - | - |
| 1787640203 | 16.11° C | 60% | 1019.2 hPa | - | - | - | - |
| 1787639303 | 15.56° C | 61% | 1019.3 hPa | - | - | - | - |
| 1787638403 | 15° C | 65% | 1019.1 hPa | - | - | - | - |
| 1787637503 | 15° C | 67% | 1019.4 hPa | - | - | - | - |
| 1787636603 | 16.67° C | 59% | 1019.4 hPa | - | - | - | - |
| 1787635703 | 17.78° C | 55% | 1019.2 hPa | - | - | - | - |
| 1787634803 | 15° C | 67% | 1019.2 hPa | - | - | - | - |
| 1787633903 | 12.22° C | 92% | 1019.1 hPa | - | - | - | - |
| 1787633003 | 10° C | 100% | 1019.2 hPa | - | - | - | - |
| 1787632103 | 9.44° C | 100% | 1019.5 hPa | - | - | - | - |
| 1787631203 | 9.44° C | 100% | 1019.4 hPa | - | - | - | - |
| 1787630303 | 9.44° C | 100% | 1019.5 hPa | - | - | - | - |
| 1787629403 | 9.44° C | 100% | 1019.7 hPa | - | - | - | - |
| 1787628503 | 9.44° C | 100% | 1019.7 hPa | - | - | - | - |
| 1787627603 | 9.44° C | 100% | 1019.4 hPa | - | - | - | - |
| 1787626702 | 9.44° C | 100% | 1019.7 hPa | - | - | - | - |
| 1787625802 | 8.89° C | 100% | 1019.9 hPa | - | - | - | - |
| 1787624902 | 8.89° C | 100% | 1019.9 hPa | - | - | - | - |
| 1787624002 | 8.33° C | 100% | 1019.9 hPa | - | - | - | - |
| 1787623102 | 8.33° C | 100% | 1020.1 hPa | - | - | - | - |
| 1787622202 | 7.78° C | 100% | 1020 hPa | - | - | - | - |
| 1787621302 | 7.78° C | 100% | 1020 hPa | - | - | - | - |
| 1787620402 | 7.78° C | 100% | 1020.2 hPa | - | - | - | - |
| 1787619502 | 7.78° C | 100% | 1020.3 hPa | - | - | - | - |
* Rain since midnight (hover to see other rain measurements)
** Current wind speed in m/s (hover to see current wind gust speed)